Aviation Digital Data Service (ADDS)

Output produced by METARs form (0134 UTC 23 November 2017)
found at http://www.aviationweather.gov/adds/metars/
 
FMMI 230100Z VRB03KT 9999 FEW010 BKN020 16/14 Q1018 NOSIG
TAF FMMI 222300Z 2300/2406 VRB03KT 9999 FEW010 BKN020 
     PROB30 
     TEMPO 2300/2304 4500 RA 
     BECMG 2304/2307 16010KT 
     PROB40 
     TEMPO 2312/2320 4000 TSRA SCT015CB BKN020 
     BECMG 2317/2320 VRB03KT
       
TAF FMNA 222300Z 2300/2324 14015KT 9999 SCT020 SCT040
       
FMNM 230100Z 12004KT //// FEW020 SCT040 26/22 Q1010
TAF FMNM 222300Z 2300/2324 14005KT 9999 SCT020 SCT040 
     BECMG 2305/2308 30010KT 
     PROB30 
     TEMPO 2312/2318 4500 TSRA SCT020CB SCT040
       
TAF FMNN 222300Z 2300/2324 20005KT 9999 SCT020 SCT040 
     BECMG 2305/2308 26010KT 
     PROB40 
     TEMPO 2312/2318 4500 TSRA SCT015CB BKN040
       
TAF FMMS 222300Z 2300/2324 18008KT 9999 FEW007 SCT017CB BKN033 
     TEMPO 2300/2324 4000 TSRA
       
FMMT 230100Z 24004KT 9999 VCSH FEW007 SCT017TCU BKN033 22/21 Q1013
TAF FMMT 222300Z 2300/2324 18008KT 9999 FEW007 SCT017CB BKN033 
     TEMPO 2300/2324 4000 TSRA
       
FMSD 230100Z 04006KT 9999 FEW016 23/18 Q1015
TAF FMSD 222300Z 2300/2324 06015KT 9999 SCT016 BKN033
       
TAF FMST 222300Z 2300/2324 16008KT 9999 SCT020 
     BECMG 2305/2308 24012KT